sensor_id;sensor_type;location;lat;lon;timestamp;temperature;humidity
55151;DHT22;41041;43.162;20.538;2023-03-17T00:00:18;128.70;2252.80
55151;DHT22;41041;43.162;20.538;2023-03-17T00:02:45;128.90;2252.80
55151;DHT22;41041;43.162;20.538;2023-03-17T00:05:22;128.90;2252.80
55151;DHT22;41041;43.162;20.538;2023-03-17T00:11:17;153.60;2252.80
55151;DHT22;41041;43.162;20.538;2023-03-17T00:13:43;128.90;2252.80
55151;DHT22;41041;43.162;20.538;2023-03-17T00:16:16;128.90;2252.80
55151;DHT22;41041;43.162;20.538;2023-03-17T00:18:44;128.90;2252.80
55151;DHT22;41041;43.162;20.538;2023-03-17T00:21:14;128.90;2252.80
55151;DHT22;41041;43.162;20.538;2023-03-17T00:23:44;128.90;2252.80
55151;DHT22;41041;43.162;20.538;2023-03-17T00:29:34;128.80;2252.80
55151;DHT22;41041;43.162;20.538;2023-03-17T00:32:00;128.80;2252.80
55151;DHT22;41041;43.162;20.538;2023-03-17T00:34:26;128.80;2252.80
55151;DHT22;41041;43.162;20.538;2023-03-17T00:36:52;128.90;2252.80
55151;DHT22;41041;43.162;20.538;2023-03-17T00:39:18;128.80;2252.80
55151;DHT22;41041;43.162;20.538;2023-03-17T00:41:45;128.80;2252.80
55151;DHT22;41041;43.162;20.538;2023-03-17T00:44:11;128.90;2252.80
55151;DHT22;41041;43.162;20.538;2023-03-17T00:46:38;128.90;2252.80
55151;DHT22;41041;43.162;20.538;2023-03-17T00:52:28;153.70;2252.80
55151;DHT22;41041;43.162;20.538;2023-03-17T00:54:54;153.70;2252.80
55151;DHT22;41041;43.162;20.538;2023-03-17T00:57:20;153.70;2252.80
55151;DHT22;41041;43.162;20.538;2023-03-17T00:59:46;153.70;2252.80
55151;DHT22;41041;43.162;20.538;2023-03-17T01:02:12;153.60;2252.80
55151;DHT22;41041;43.162;20.538;2023-03-17T01:04:38;153.70;2252.80
55151;DHT22;41041;43.162;20.538;2023-03-17T01:10:28;153.70;2252.80
55151;DHT22;41041;43.162;20.538;2023-03-17T01:12:55;153.70;2252.80
55151;DHT22;41041;43.162;20.538;2023-03-17T01:15:28;153.70;2252.80
55151;DHT22;41041;43.162;20.538;2023-03-17T01:21:18;128.90;2252.80
55151;DHT22;41041;43.162;20.538;2023-03-17T01:23:44;128.90;2252.80
55151;DHT22;41041;43.162;20.538;2023-03-17T01:26:10;128.80;2252.80
55151;DHT22;41041;43.162;20.538;2023-03-17T01:28:43;128.90;2252.80
55151;DHT22;41041;43.162;20.538;2023-03-17T01:31:09;153.60;2252.80
55151;DHT22;41041;43.162;20.538;2023-03-17T01:36:59;128.90;2252.80
55151;DHT22;41041;43.162;20.538;2023-03-17T01:39:26;153.70;2252.80
55151;DHT22;41041;43.162;20.538;2023-03-17T01:41:52;153.60;2252.80
55151;DHT22;41041;43.162;20.538;2023-03-17T01:47:43;154.00;2252.80
55151;DHT22;41041;43.162;20.538;2023-03-17T01:50:10;153.80;2252.80
55151;DHT22;41041;43.162;20.538;2023-03-17T04:33:37;153.90;2252.80
55151;DHT22;41041;43.162;20.538;2023-03-17T04:36:04;153.60;2252.80
55151;DHT22;41041;43.162;20.538;2023-03-17T04:38:30;153.60;2252.80
55151;DHT22;41041;43.162;20.538;2023-03-17T04:41:26;153.60;2252.80
55151;DHT22;41041;43.162;20.538;2023-03-17T04:43:53;153.60;2252.80
55151;DHT22;41041;43.162;20.538;2023-03-17T04:46:19;153.70;2252.80
55151;DHT22;41041;43.162;20.538;2023-03-17T04:48:45;128.90;2252.80
55151;DHT22;41041;43.162;20.538;2023-03-17T04:57:52;128.90;2252.80
55151;DHT22;41041;43.162;20.538;2023-03-17T05:00:18;128.90;2252.80
55151;DHT22;41041;43.162;20.538;2023-03-17T05:02:45;128.80;2252.80
55151;DHT22;41041;43.162;20.538;2023-03-17T05:05:11;128.90;2252.80
55151;DHT22;41041;43.162;20.538;2023-03-17T05:07:37;128.90;2252.80
55151;DHT22;41041;43.162;20.538;2023-03-17T11:28:25;282.20;1996.80
55151;DHT22;41041;43.162;20.538;2023-03-17T11:30:38;281.90;2022.40
55151;DHT22;41041;43.162;20.538;2023-03-17T11:38:25;282.10;1996.80
55151;DHT22;41041;43.162;20.538;2023-03-17T11:41:15;282.10;1996.80
55151;DHT22;41041;43.162;20.538;2023-03-17T11:43:59;282.20;1996.80
55151;DHT22;41041;43.162;20.538;2023-03-17T11:46:37;282.10;1971.20
55151;DHT22;41041;43.162;20.538;2023-03-17T11:49:19;282.20;1971.20
55151;DHT22;41041;43.162;20.538;2023-03-17T11:51:59;282.10;1971.20
55151;DHT22;41041;43.162;20.538;2023-03-17T11:55:18;282.40;1971.20
55151;DHT22;41041;43.162;20.538;2023-03-17T13:44:51;307.50;1945.60
55151;DHT22;41041;43.162;20.538;2023-03-17T13:50:23;307.90;1945.60
55151;DHT22;41041;43.162;20.538;2023-03-17T13:53:01;307.50;1971.20
55151;DHT22;41041;43.162;20.538;2023-03-17T13:55:35;307.40;2022.40
55151;DHT22;41041;43.162;20.538;2023-03-17T16:35:41;307.50;2124.80
55151;DHT22;41041;43.162;20.538;2023-03-17T16:38:12;282.40;2176.00
55151;DHT22;41041;43.162;20.538;2023-03-17T19:00:59;180.00;2252.80
55151;DHT22;41041;43.162;20.538;2023-03-17T19:03:26;179.80;2252.80
55151;DHT22;41041;43.162;20.538;2023-03-17T19:05:53;179.60;2252.80
55151;DHT22;41041;43.162;20.538;2023-03-17T19:08:19;179.60;2252.80
55151;DHT22;41041;43.162;20.538;2023-03-17T19:10:59;179.60;2252.80
55151;DHT22;41041;43.162;20.538;2023-03-17T22:05:58;128.20;2252.80
55151;DHT22;41041;43.162;20.538;2023-03-17T22:08:24;103.30;2227.20
55151;DHT22;41041;43.162;20.538;2023-03-17T22:10:52;103.20;2227.20
55151;DHT22;41041;43.162;20.538;2023-03-17T22:16:24;102.90;2227.20
55151;DHT22;41041;43.162;20.538;2023-03-17T22:27:21;103.00;2227.20
55151;DHT22;41041;43.162;20.538;2023-03-17T22:29:46;103.00;2227.20
55151;DHT22;41041;43.162;20.538;2023-03-17T22:32:12;103.00;2227.20
55151;DHT22;41041;43.162;20.538;2023-03-17T22:34:50;102.90;2227.20
55151;DHT22;41041;43.162;20.538;2023-03-17T22:37:22;103.10;2227.20
